sensor_id;sensor_type;location;lat;lon;timestamp;P1;durP1;ratioP1;P2;durP2;ratioP2
53881;SDS011;39794;55.782;37.452;2022-07-06T00:00:53;30.23;;;26.05;;
53881;SDS011;39794;55.782;37.452;2022-07-06T00:03:23;35.72;;;27.45;;
53881;SDS011;39794;55.782;37.452;2022-07-06T00:05:52;32.30;;;26.05;;
53881;SDS011;39794;55.782;37.452;2022-07-06T00:08:21;35.92;;;27.80;;
53881;SDS011;39794;55.782;37.452;2022-07-06T00:10:50;31.30;;;26.98;;
53881;SDS011;39794;55.782;37.452;2022-07-06T00:13:19;31.63;;;26.02;;
53881;SDS011;39794;55.782;37.452;2022-07-06T00:15:48;30.85;;;26.33;;
53881;SDS011;39794;55.782;37.452;2022-07-06T00:18:16;33.30;;;27.13;;
53881;SDS011;39794;55.782;37.452;2022-07-06T00:20:47;33.30;;;26.48;;
53881;SDS011;39794;55.782;37.452;2022-07-06T00:23:16;32.90;;;25.92;;
53881;SDS011;39794;55.782;37.452;2022-07-06T00:25:45;33.75;;;26.50;;
53881;SDS011;39794;55.782;37.452;2022-07-06T00:28:15;32.95;;;27.05;;
53881;SDS011;39794;55.782;37.452;2022-07-06T00:30:44;31.08;;;25.77;;
53881;SDS011;39794;55.782;37.452;2022-07-06T00:33:13;35.63;;;26.35;;
53881;SDS011;39794;55.782;37.452;2022-07-06T00:35:41;33.20;;;25.02;;
53881;SDS011;39794;55.782;37.452;2022-07-06T00:38:12;31.75;;;26.13;;
53881;SDS011;39794;55.782;37.452;2022-07-06T00:40:40;32.05;;;25.00;;
53881;SDS011;39794;55.782;37.452;2022-07-06T00:43:09;31.85;;;25.90;;
53881;SDS011;39794;55.782;37.452;2022-07-06T00:45:38;29.88;;;24.55;;
53881;SDS011;39794;55.782;37.452;2022-07-06T00:48:07;32.60;;;25.63;;
53881;SDS011;39794;55.782;37.452;2022-07-06T00:50:36;31.55;;;26.10;;
53881;SDS011;39794;55.782;37.452;2022-07-06T00:53:05;32.47;;;25.73;;
53881;SDS011;39794;55.782;37.452;2022-07-06T00:55:37;32.00;;;25.95;;
53881;SDS011;39794;55.782;37.452;2022-07-06T00:58:07;31.60;;;26.15;;
53881;SDS011;39794;55.782;37.452;2022-07-06T01:00:37;32.47;;;26.20;;
53881;SDS011;39794;55.782;37.452;2022-07-06T01:03:11;32.47;;;25.85;;
53881;SDS011;39794;55.782;37.452;2022-07-06T01:05:40;32.08;;;26.25;;
53881;SDS011;39794;55.782;37.452;2022-07-06T01:08:09;29.88;;;25.58;;
53881;SDS011;39794;55.782;37.452;2022-07-06T01:10:39;30.17;;;24.42;;
53881;SDS011;39794;55.782;37.452;2022-07-06T01:13:08;30.80;;;25.13;;
53881;SDS011;39794;55.782;37.452;2022-07-06T01:15:38;29.45;;;25.23;;
53881;SDS011;39794;55.782;37.452;2022-07-06T01:18:06;31.02;;;23.75;;
53881;SDS011;39794;55.782;37.452;2022-07-06T01:20:39;34.55;;;24.90;;
53881;SDS011;39794;55.782;37.452;2022-07-06T01:23:08;30.08;;;25.05;;
53881;SDS011;39794;55.782;37.452;2022-07-06T01:25:38;27.48;;;24.17;;
53881;SDS011;39794;55.782;37.452;2022-07-06T01:28:06;28.45;;;23.80;;
53881;SDS011;39794;55.782;37.452;2022-07-06T01:30:35;28.38;;;22.80;;
53881;SDS011;39794;55.782;37.452;2022-07-06T01:33:04;29.33;;;23.70;;
53881;SDS011;39794;55.782;37.452;2022-07-06T01:35:32;33.47;;;23.35;;
53881;SDS011;39794;55.782;37.452;2022-07-06T01:38:05;27.38;;;23.00;;
53881;SDS011;39794;55.782;37.452;2022-07-06T01:40:34;27.17;;;22.98;;
53881;SDS011;39794;55.782;37.452;2022-07-06T01:43:03;31.25;;;23.55;;
53881;SDS011;39794;55.782;37.452;2022-07-06T01:45:32;27.27;;;22.67;;
53881;SDS011;39794;55.782;37.452;2022-07-06T01:48:01;29.63;;;23.52;;
53881;SDS011;39794;55.782;37.452;2022-07-06T01:50:33;26.55;;;22.80;;
53881;SDS011;39794;55.782;37.452;2022-07-06T01:53:02;24.08;;;20.73;;
53881;SDS011;39794;55.782;37.452;2022-07-06T01:55:32;27.33;;;21.20;;
53881;SDS011;39794;55.782;37.452;2022-07-06T01:58:01;24.80;;;21.08;;
53881;SDS011;39794;55.782;37.452;2022-07-06T02:00:31;22.35;;;19.95;;
53881;SDS011;39794;55.782;37.452;2022-07-06T02:02:59;25.58;;;20.63;;
53881;SDS011;39794;55.782;37.452;2022-07-06T02:05:28;26.75;;;21.48;;
53881;SDS011;39794;55.782;37.452;2022-07-06T02:07:57;30.65;;;21.58;;
53881;SDS011;39794;55.782;37.452;2022-07-06T02:10:26;28.25;;;22.05;;
53881;SDS011;39794;55.782;37.452;2022-07-06T02:12:56;24.50;;;21.20;;
53881;SDS011;39794;55.782;37.452;2022-07-06T02:15:25;27.98;;;22.38;;
53881;SDS011;39794;55.782;37.452;2022-07-06T02:17:54;25.08;;;21.65;;
53881;SDS011;39794;55.782;37.452;2022-07-06T02:20:23;27.13;;;22.15;;
53881;SDS011;39794;55.782;37.452;2022-07-06T02:22:52;27.02;;;21.73;;
53881;SDS011;39794;55.782;37.452;2022-07-06T02:25:21;24.48;;;21.23;;
53881;SDS011;39794;55.782;37.452;2022-07-06T02:27:50;26.55;;;22.50;;
53881;SDS011;39794;55.782;37.452;2022-07-06T02:30:21;24.83;;;21.20;;
53881;SDS011;39794;55.782;37.452;2022-07-06T02:32:50;25.17;;;21.65;;
53881;SDS011;39794;55.782;37.452;2022-07-06T02:35:18;24.60;;;21.77;;
53881;SDS011;39794;55.782;37.452;2022-07-06T02:37:47;23.30;;;20.80;;
53881;SDS011;39794;55.782;37.452;2022-07-06T02:40:16;24.88;;;19.83;;
53881;SDS011;39794;55.782;37.452;2022-07-06T02:42:45;27.67;;;19.75;;
53881;SDS011;39794;55.782;37.452;2022-07-06T02:45:14;22.90;;;18.02;;
53881;SDS011;39794;55.782;37.452;2022-07-06T02:47:45;21.50;;;18.73;;
53881;SDS011;39794;55.782;37.452;2022-07-06T02:50:14;20.92;;;18.63;;
53881;SDS011;39794;55.782;37.452;2022-07-06T02:52:43;20.83;;;18.15;;
53881;SDS011;39794;55.782;37.452;2022-07-06T02:55:12;21.33;;;17.90;;
53881;SDS011;39794;55.782;37.452;2022-07-06T02:57:41;22.98;;;18.40;;
53881;SDS011;39794;55.782;37.452;2022-07-06T03:00:12;21.58;;;17.38;;
53881;SDS011;39794;55.782;37.452;2022-07-06T03:02:42;19.70;;;17.70;;
53881;SDS011;39794;55.782;37.452;2022-07-06T03:05:13;19.63;;;17.50;;
53881;SDS011;39794;55.782;37.452;2022-07-06T03:07:42;21.55;;;17.77;;
53881;SDS011;39794;55.782;37.452;2022-07-06T03:10:10;20.52;;;16.92;;
53881;SDS011;39794;55.782;37.452;2022-07-06T03:12:39;19.63;;;16.88;;
53881;SDS011;39794;55.782;37.452;2022-07-06T03:15:08;19.58;;;17.50;;
53881;SDS011;39794;55.782;37.452;2022-07-06T03:17:43;19.88;;;17.77;;
53881;SDS011;39794;55.782;37.452;2022-07-06T03:20:14;19.25;;;16.67;;
53881;SDS011;39794;55.782;37.452;2022-07-06T03:22:44;20.15;;;17.75;;
53881;SDS011;39794;55.782;37.452;2022-07-06T03:25:14;18.92;;;16.95;;
53881;SDS011;39794;55.782;37.452;2022-07-06T03:27:43;18.92;;;16.83;;
53881;SDS011;39794;55.782;37.452;2022-07-06T03:30:15;20.90;;;16.63;;
53881;SDS011;39794;55.782;37.452;2022-07-06T03:32:49;22.27;;;17.05;;
53881;SDS011;39794;55.782;37.452;2022-07-06T03:35:20;20.40;;;17.65;;
53881;SDS011;39794;55.782;37.452;2022-07-06T03:37:51;22.80;;;17.40;;
53881;SDS011;39794;55.782;37.452;2022-07-06T03:40:22;18.42;;;15.73;;
53881;SDS011;39794;55.782;37.452;2022-07-06T03:42:51;19.40;;;15.60;;
53881;SDS011;39794;55.782;37.452;2022-07-06T03:45:21;21.80;;;16.95;;
53881;SDS011;39794;55.782;37.452;2022-07-06T03:47:50;22.08;;;16.90;;
53881;SDS011;39794;55.782;37.452;2022-07-06T03:50:20;20.25;;;16.50;;
53881;SDS011;39794;55.782;37.452;2022-07-06T03:52:49;20.50;;;16.92;;
53881;SDS011;39794;55.782;37.452;2022-07-06T03:55:18;18.63;;;16.67;;
53881;SDS011;39794;55.782;37.452;2022-07-06T03:57:53;25.05;;;17.58;;
53881;SDS011;39794;55.782;37.452;2022-07-06T04:00:23;20.45;;;17.52;;
53881;SDS011;39794;55.782;37.452;2022-07-06T04:02:59;19.13;;;17.10;;
53881;SDS011;39794;55.782;37.452;2022-07-06T04:05:35;20.25;;;17.13;;
53881;SDS011;39794;55.782;37.452;2022-07-06T04:08:04;22.50;;;18.50;;
53881;SDS011;39794;55.782;37.452;2022-07-06T04:10:38;19.45;;;17.05;;
53881;SDS011;39794;55.782;37.452;2022-07-06T04:13:07;23.17;;;18.45;;
53881;SDS011;39794;55.782;37.452;2022-07-06T04:15:36;21.20;;;18.55;;
53881;SDS011;39794;55.782;37.452;2022-07-06T04:18:06;24.98;;;17.60;;
53881;SDS011;39794;55.782;37.452;2022-07-06T04:20:42;22.17;;;18.75;;
53881;SDS011;39794;55.782;37.452;2022-07-06T04:23:11;22.95;;;19.38;;
53881;SDS011;39794;55.782;37.452;2022-07-06T04:25:39;24.50;;;19.45;;
53881;SDS011;39794;55.782;37.452;2022-07-06T04:28:09;27.73;;;19.27;;
53881;SDS011;39794;55.782;37.452;2022-07-06T04:30:37;24.02;;;19.02;;
53881;SDS011;39794;55.782;37.452;2022-07-06T04:33:10;23.77;;;20.23;;
53881;SDS011;39794;55.782;37.452;2022-07-06T04:35:43;22.70;;;19.38;;
53881;SDS011;39794;55.782;37.452;2022-07-06T04:38:12;25.80;;;19.65;;
53881;SDS011;39794;55.782;37.452;2022-07-06T04:40:42;23.23;;;19.52;;
53881;SDS011;39794;55.782;37.452;2022-07-06T04:43:16;22.42;;;18.52;;
53881;SDS011;39794;55.782;37.452;2022-07-06T04:45:44;26.63;;;18.90;;
53881;SDS011;39794;55.782;37.452;2022-07-06T04:48:13;23.80;;;20.25;;
53881;SDS011;39794;55.782;37.452;2022-07-06T04:50:44;22.40;;;18.55;;
53881;SDS011;39794;55.782;37.452;2022-07-06T04:53:19;20.95;;;18.60;;
53881;SDS011;39794;55.782;37.452;2022-07-06T04:55:48;21.88;;;17.83;;
53881;SDS011;39794;55.782;37.452;2022-07-06T04:58:18;24.85;;;18.45;;
53881;SDS011;39794;55.782;37.452;2022-07-06T05:00:48;21.85;;;18.33;;
53881;SDS011;39794;55.782;37.452;2022-07-06T05:03:41;23.83;;;19.20;;
53881;SDS011;39794;55.782;37.452;2022-07-06T05:06:12;25.25;;;19.23;;
53881;SDS011;39794;55.782;37.452;2022-07-06T05:08:42;28.00;;;20.13;;
53881;SDS011;39794;55.782;37.452;2022-07-06T05:11:11;23.50;;;18.35;;
53881;SDS011;39794;55.782;37.452;2022-07-06T05:13:40;19.92;;;17.65;;
53881;SDS011;39794;55.782;37.452;2022-07-06T05:16:10;21.88;;;17.15;;
53881;SDS011;39794;55.782;37.452;2022-07-06T05:18:40;23.05;;;18.25;;
53881;SDS011;39794;55.782;37.452;2022-07-06T05:21:09;18.58;;;16.27;;
53881;SDS011;39794;55.782;37.452;2022-07-06T05:23:38;22.10;;;18.23;;
53881;SDS011;39794;55.782;37.452;2022-07-06T05:26:07;23.50;;;18.30;;
53881;SDS011;39794;55.782;37.452;2022-07-06T05:28:36;20.52;;;16.63;;
53881;SDS011;39794;55.782;37.452;2022-07-06T05:31:08;24.77;;;16.33;;
53881;SDS011;39794;55.782;37.452;2022-07-06T05:33:40;21.15;;;16.45;;
53881;SDS011;39794;55.782;37.452;2022-07-06T05:36:09;20.00;;;15.68;;
53881;SDS011;39794;55.782;37.452;2022-07-06T05:38:38;22.48;;;14.65;;
53881;SDS011;39794;55.782;37.452;2022-07-06T05:41:07;19.55;;;13.48;;
53881;SDS011;39794;55.782;37.452;2022-07-06T05:43:36;14.15;;;11.82;;
53881;SDS011;39794;55.782;37.452;2022-07-06T05:46:05;13.23;;;9.70;;
53881;SDS011;39794;55.782;37.452;2022-07-06T05:48:35;11.25;;;10.05;;
53881;SDS011;39794;55.782;37.452;2022-07-06T05:51:23;15.55;;;11.93;;
53881;SDS011;39794;55.782;37.452;2022-07-06T05:53:52;14.60;;;10.80;;
53881;SDS011;39794;55.782;37.452;2022-07-06T05:56:21;11.73;;;10.38;;
53881;SDS011;39794;55.782;37.452;2022-07-06T05:58:51;12.18;;;9.68;;
53881;SDS011;39794;55.782;37.452;2022-07-06T06:01:20;12.02;;;10.20;;
53881;SDS011;39794;55.782;37.452;2022-07-06T06:04:00;15.48;;;10.10;;
53881;SDS011;39794;55.782;37.452;2022-07-06T06:06:30;12.30;;;10.23;;
53881;SDS011;39794;55.782;37.452;2022-07-06T06:08:59;13.45;;;10.25;;
53881;SDS011;39794;55.782;37.452;2022-07-06T06:11:28;12.15;;;10.30;;
53881;SDS011;39794;55.782;37.452;2022-07-06T06:13:56;14.45;;;11.65;;
53881;SDS011;39794;55.782;37.452;2022-07-06T06:16:25;14.73;;;11.07;;
53881;SDS011;39794;55.782;37.452;2022-07-06T06:18:55;13.57;;;10.93;;
53881;SDS011;39794;55.782;37.452;2022-07-06T06:21:23;15.35;;;10.93;;
53881;SDS011;39794;55.782;37.452;2022-07-06T06:23:53;12.75;;;11.10;;
53881;SDS011;39794;55.782;37.452;2022-07-06T06:26:22;13.65;;;12.10;;
53881;SDS011;39794;55.782;37.452;2022-07-06T06:28:51;12.23;;;10.90;;
53881;SDS011;39794;55.782;37.452;2022-07-06T06:31:19;16.90;;;12.50;;
53881;SDS011;39794;55.782;37.452;2022-07-06T06:33:48;18.15;;;12.05;;
53881;SDS011;39794;55.782;37.452;2022-07-06T06:36:17;16.48;;;12.32;;
53881;SDS011;39794;55.782;37.452;2022-07-06T06:38:46;14.30;;;11.77;;
53881;SDS011;39794;55.782;37.452;2022-07-06T06:41:23;14.77;;;11.55;;
53881;SDS011;39794;55.782;37.452;2022-07-06T06:43:52;16.27;;;12.05;;
53881;SDS011;39794;55.782;37.452;2022-07-06T06:46:27;13.25;;;11.35;;
53881;SDS011;39794;55.782;37.452;2022-07-06T06:48:55;20.90;;;12.50;;
53881;SDS011;39794;55.782;37.452;2022-07-06T06:51:24;13.55;;;11.57;;
53881;SDS011;39794;55.782;37.452;2022-07-06T06:53:53;12.93;;;11.05;;
53881;SDS011;39794;55.782;37.452;2022-07-06T06:56:23;13.57;;;12.00;;
53881;SDS011;39794;55.782;37.452;2022-07-06T06:58:52;12.65;;;10.93;;
53881;SDS011;39794;55.782;37.452;2022-07-06T07:01:41;15.02;;;11.43;;
53881;SDS011;39794;55.782;37.452;2022-07-06T07:04:10;14.95;;;12.13;;
53881;SDS011;39794;55.782;37.452;2022-07-06T07:06:39;18.02;;;11.23;;
53881;SDS011;39794;55.782;37.452;2022-07-06T07:09:07;16.98;;;11.38;;
53881;SDS011;39794;55.782;37.452;2022-07-06T07:11:38;14.30;;;12.13;;
53881;SDS011;39794;55.782;37.452;2022-07-06T07:14:06;17.10;;;11.40;;
53881;SDS011;39794;55.782;37.452;2022-07-06T07:16:35;14.05;;;10.88;;
53881;SDS011;39794;55.782;37.452;2022-07-06T07:19:04;13.10;;;10.60;;
53881;SDS011;39794;55.782;37.452;2022-07-06T07:21:33;16.42;;;10.82;;
53881;SDS011;39794;55.782;37.452;2022-07-06T07:24:02;12.40;;;9.88;;
53881;SDS011;39794;55.782;37.452;2022-07-06T07:26:37;13.35;;;10.32;;
53881;SDS011;39794;55.782;37.452;2022-07-06T07:29:06;13.88;;;10.80;;
53881;SDS011;39794;55.782;37.452;2022-07-06T07:31:35;12.65;;;10.55;;
53881;SDS011;39794;55.782;37.452;2022-07-06T07:34:04;17.60;;;10.75;;
53881;SDS011;39794;55.782;37.452;2022-07-06T07:36:32;15.20;;;10.60;;
53881;SDS011;39794;55.782;37.452;2022-07-06T07:39:01;14.20;;;11.40;;
53881;SDS011;39794;55.782;37.452;2022-07-06T07:41:30;15.90;;;11.30;;
53881;SDS011;39794;55.782;37.452;2022-07-06T07:44:00;11.80;;;10.60;;
53881;SDS011;39794;55.782;37.452;2022-07-06T07:46:29;13.60;;;10.30;;
53881;SDS011;39794;55.782;37.452;2022-07-06T07:48:58;12.77;;;10.50;;
53881;SDS011;39794;55.782;37.452;2022-07-06T07:51:28;14.68;;;10.45;;
53881;SDS011;39794;55.782;37.452;2022-07-06T07:53:57;13.35;;;10.88;;
53881;SDS011;39794;55.782;37.452;2022-07-06T07:56:26;13.80;;;9.82;;
53881;SDS011;39794;55.782;37.452;2022-07-06T07:58:54;12.52;;;9.80;;
53881;SDS011;39794;55.782;37.452;2022-07-06T08:01:29;16.15;;;11.27;;
53881;SDS011;39794;55.782;37.452;2022-07-06T08:03:58;13.15;;;10.05;;
53881;SDS011;39794;55.782;37.452;2022-07-06T08:06:27;13.95;;;11.00;;
53881;SDS011;39794;55.782;37.452;2022-07-06T08:08:56;12.20;;;11.00;;
53881;SDS011;39794;55.782;37.452;2022-07-06T08:11:24;14.07;;;10.68;;
53881;SDS011;39794;55.782;37.452;2022-07-06T08:13:53;14.10;;;11.05;;
53881;SDS011;39794;55.782;37.452;2022-07-06T08:16:22;14.95;;;11.27;;
53881;SDS011;39794;55.782;37.452;2022-07-06T08:18:52;16.05;;;11.32;;
53881;SDS011;39794;55.782;37.452;2022-07-06T08:21:21;14.18;;;11.45;;
53881;SDS011;39794;55.782;37.452;2022-07-06T08:23:52;13.82;;;11.32;;
53881;SDS011;39794;55.782;37.452;2022-07-06T08:26:22;12.98;;;11.57;;
53881;SDS011;39794;55.782;37.452;2022-07-06T08:28:50;13.68;;;12.02;;
53881;SDS011;39794;55.782;37.452;2022-07-06T08:31:19;13.88;;;12.00;;
53881;SDS011;39794;55.782;37.452;2022-07-06T08:34:10;16.90;;;11.60;;
53881;SDS011;39794;55.782;37.452;2022-07-06T08:36:38;13.57;;;10.63;;
53881;SDS011;39794;55.782;37.452;2022-07-06T08:39:07;12.48;;;10.13;;
53881;SDS011;39794;55.782;37.452;2022-07-06T08:41:36;10.93;;;9.77;;
53881;SDS011;39794;55.782;37.452;2022-07-06T08:44:05;18.25;;;11.48;;
53881;SDS011;39794;55.782;37.452;2022-07-06T08:46:34;19.27;;;10.98;;
53881;SDS011;39794;55.782;37.452;2022-07-06T08:49:03;13.73;;;11.02;;
53881;SDS011;39794;55.782;37.452;2022-07-06T08:51:35;18.23;;;11.45;;
53881;SDS011;39794;55.782;37.452;2022-07-06T08:54:05;13.15;;;11.15;;
53881;SDS011;39794;55.782;37.452;2022-07-06T08:56:34;14.30;;;11.07;;
53881;SDS011;39794;55.782;37.452;2022-07-06T08:59:03;13.50;;;11.52;;
53881;SDS011;39794;55.782;37.452;2022-07-06T09:01:35;12.30;;;11.00;;
53881;SDS011;39794;55.782;37.452;2022-07-06T09:04:04;13.35;;;11.95;;
53881;SDS011;39794;55.782;37.452;2022-07-06T09:06:36;14.43;;;11.25;;
53881;SDS011;39794;55.782;37.452;2022-07-06T09:09:05;22.40;;;12.57;;
53881;SDS011;39794;55.782;37.452;2022-07-06T09:11:34;13.95;;;11.32;;
53881;SDS011;39794;55.782;37.452;2022-07-06T09:14:04;13.05;;;11.65;;
53881;SDS011;39794;55.782;37.452;2022-07-06T09:16:33;14.15;;;11.63;;
53881;SDS011;39794;55.782;37.452;2022-07-06T09:19:06;13.25;;;11.80;;
53881;SDS011;39794;55.782;37.452;2022-07-06T09:21:36;17.45;;;12.10;;
53881;SDS011;39794;55.782;37.452;2022-07-06T09:24:07;15.02;;;12.20;;
53881;SDS011;39794;55.782;37.452;2022-07-06T09:26:37;13.82;;;12.02;;
53881;SDS011;39794;55.782;37.452;2022-07-06T09:29:06;16.88;;;12.40;;
53881;SDS011;39794;55.782;37.452;2022-07-06T09:31:35;17.17;;;11.98;;
53881;SDS011;39794;55.782;37.452;2022-07-06T09:34:04;17.42;;;12.15;;
53881;SDS011;39794;55.782;37.452;2022-07-06T09:36:43;20.00;;;12.57;;
53881;SDS011;39794;55.782;37.452;2022-07-06T09:39:16;20.40;;;12.05;;
53881;SDS011;39794;55.782;37.452;2022-07-06T09:41:52;15.25;;;11.10;;
53881;SDS011;39794;55.782;37.452;2022-07-06T09:44:22;13.00;;;11.57;;
53881;SDS011;39794;55.782;37.452;2022-07-06T09:46:52;12.75;;;11.07;;
53881;SDS011;39794;55.782;37.452;2022-07-06T09:49:21;15.45;;;11.02;;
53881;SDS011;39794;55.782;37.452;2022-07-06T09:51:52;12.57;;;11.25;;
53881;SDS011;39794;55.782;37.452;2022-07-06T09:54:22;14.13;;;11.25;;
53881;SDS011;39794;55.782;37.452;2022-07-06T09:56:52;13.73;;;10.73;;
53881;SDS011;39794;55.782;37.452;2022-07-06T09:59:21;15.45;;;12.15;;
53881;SDS011;39794;55.782;37.452;2022-07-06T10:01:52;13.32;;;10.77;;
53881;SDS011;39794;55.782;37.452;2022-07-06T10:04:21;13.98;;;11.52;;
53881;SDS011;39794;55.782;37.452;2022-07-06T10:06:52;12.30;;;11.10;;
53881;SDS011;39794;55.782;37.452;2022-07-06T10:09:22;12.80;;;11.50;;
53881;SDS011;39794;55.782;37.452;2022-07-06T10:11:53;19.60;;;11.57;;
53881;SDS011;39794;55.782;37.452;2022-07-06T10:14:23;12.45;;;11.20;;
53881;SDS011;39794;55.782;37.452;2022-07-06T10:16:53;12.60;;;11.18;;
53881;SDS011;39794;55.782;37.452;2022-07-06T10:19:23;15.05;;;10.93;;
53881;SDS011;39794;55.782;37.452;2022-07-06T10:21:54;12.32;;;11.02;;
53881;SDS011;39794;55.782;37.452;2022-07-06T10:24:24;13.05;;;11.63;;
53881;SDS011;39794;55.782;37.452;2022-07-06T10:26:54;12.63;;;10.20;;
53881;SDS011;39794;55.782;37.452;2022-07-06T10:29:23;11.25;;;10.13;;
53881;SDS011;39794;55.782;37.452;2022-07-06T10:31:52;15.52;;;11.63;;
53881;SDS011;39794;55.782;37.452;2022-07-06T10:34:22;12.38;;;10.52;;
53881;SDS011;39794;55.782;37.452;2022-07-06T10:36:51;11.15;;;9.93;;
53881;SDS011;39794;55.782;37.452;2022-07-06T10:39:35;12.38;;;9.38;;
53881;SDS011;39794;55.782;37.452;2022-07-06T10:42:41;11.00;;;9.45;;
53881;SDS011;39794;55.782;37.452;2022-07-06T10:45:11;11.00;;;9.90;;
53881;SDS011;39794;55.782;37.452;2022-07-06T10:47:40;10.52;;;9.43;;
53881;SDS011;39794;55.782;37.452;2022-07-06T10:50:10;14.07;;;9.70;;
53881;SDS011;39794;55.782;37.452;2022-07-06T10:52:49;10.38;;;9.13;;
53881;SDS011;39794;55.782;37.452;2022-07-06T10:55:30;14.05;;;9.23;;
53881;SDS011;39794;55.782;37.452;2022-07-06T10:57:59;10.25;;;9.18;;
53881;SDS011;39794;55.782;37.452;2022-07-06T11:00:48;10.82;;;9.32;;
53881;SDS011;39794;55.782;37.452;2022-07-06T11:03:31;11.13;;;9.23;;
53881;SDS011;39794;55.782;37.452;2022-07-06T11:06:01;10.75;;;9.60;;
53881;SDS011;39794;55.782;37.452;2022-07-06T11:08:43;10.13;;;8.82;;
53881;SDS011;39794;55.782;37.452;2022-07-06T11:11:18;13.20;;;10.02;;
53881;SDS011;39794;55.782;37.452;2022-07-06T11:13:55;11.98;;;8.93;;
53881;SDS011;39794;55.782;37.452;2022-07-06T11:16:25;12.98;;;9.75;;
53881;SDS011;39794;55.782;37.452;2022-07-06T11:19:02;11.50;;;10.30;;
53881;SDS011;39794;55.782;37.452;2022-07-06T11:21:40;12.35;;;8.90;;
53881;SDS011;39794;55.782;37.452;2022-07-06T11:24:13;10.80;;;8.63;;
53881;SDS011;39794;55.782;37.452;2022-07-06T11:26:45;8.68;;;7.88;;
53881;SDS011;39794;55.782;37.452;2022-07-06T11:29:15;9.65;;;8.70;;
53881;SDS011;39794;55.782;37.452;2022-07-06T11:31:45;10.25;;;9.07;;
53881;SDS011;39794;55.782;37.452;2022-07-06T11:34:17;10.23;;;9.18;;
53881;SDS011;39794;55.782;37.452;2022-07-06T11:36:47;9.65;;;8.13;;
53881;SDS011;39794;55.782;37.452;2022-07-06T11:39:16;11.23;;;8.80;;
53881;SDS011;39794;55.782;37.452;2022-07-06T11:41:46;9.15;;;8.35;;
53881;SDS011;39794;55.782;37.452;2022-07-06T11:44:17;9.40;;;8.40;;
53881;SDS011;39794;55.782;37.452;2022-07-06T11:46:46;12.32;;;8.93;;
53881;SDS011;39794;55.782;37.452;2022-07-06T11:49:15;8.55;;;7.75;;
53881;SDS011;39794;55.782;37.452;2022-07-06T11:51:45;9.00;;;8.10;;
53881;SDS011;39794;55.782;37.452;2022-07-06T11:54:15;12.70;;;8.23;;
53881;SDS011;39794;55.782;37.452;2022-07-06T11:56:47;13.77;;;8.60;;
53881;SDS011;39794;55.782;37.452;2022-07-06T11:59:16;8.50;;;7.63;;
53881;SDS011;39794;55.782;37.452;2022-07-06T12:01:48;10.68;;;7.97;;
53881;SDS011;39794;55.782;37.452;2022-07-06T12:04:16;8.75;;;7.72;;
53881;SDS011;39794;55.782;37.452;2022-07-06T12:06:45;9.13;;;8.05;;
53881;SDS011;39794;55.782;37.452;2022-07-06T12:09:14;9.98;;;8.02;;
53881;SDS011;39794;55.782;37.452;2022-07-06T12:11:44;8.18;;;7.47;;
53881;SDS011;39794;55.782;37.452;2022-07-06T12:14:16;11.65;;;8.15;;
53881;SDS011;39794;55.782;37.452;2022-07-06T12:16:45;15.30;;;7.45;;
53881;SDS011;39794;55.782;37.452;2022-07-06T12:19:15;8.27;;;7.53;;
53881;SDS011;39794;55.782;37.452;2022-07-06T12:21:44;8.45;;;7.13;;
53881;SDS011;39794;55.782;37.452;2022-07-06T12:24:17;8.77;;;7.60;;
53881;SDS011;39794;55.782;37.452;2022-07-06T12:29:17;9.52;;;7.50;;
53881;SDS011;39794;55.782;37.452;2022-07-06T12:31:49;10.27;;;7.60;;
53881;SDS011;39794;55.782;37.452;2022-07-06T12:34:20;9.18;;;8.25;;
53881;SDS011;39794;55.782;37.452;2022-07-06T12:36:50;10.27;;;7.90;;
53881;SDS011;39794;55.782;37.452;2022-07-06T12:39:20;8.43;;;7.55;;
53881;SDS011;39794;55.782;37.452;2022-07-06T12:41:50;7.93;;;7.13;;
53881;SDS011;39794;55.782;37.452;2022-07-06T12:44:21;7.82;;;7.10;;
53881;SDS011;39794;55.782;37.452;2022-07-06T12:47:01;8.55;;;7.45;;
53881;SDS011;39794;55.782;37.452;2022-07-06T12:49:31;8.50;;;7.63;;
53881;SDS011;39794;55.782;37.452;2022-07-06T12:52:00;7.95;;;7.13;;
53881;SDS011;39794;55.782;37.452;2022-07-06T12:54:31;8.18;;;7.38;;
53881;SDS011;39794;55.782;37.452;2022-07-06T12:57:08;8.88;;;7.80;;
53881;SDS011;39794;55.782;37.452;2022-07-06T12:59:41;10.80;;;7.38;;
53881;SDS011;39794;55.782;37.452;2022-07-06T13:02:18;9.50;;;8.05;;
53881;SDS011;39794;55.782;37.452;2022-07-06T13:05:09;11.57;;;7.72;;
53881;SDS011;39794;55.782;37.452;2022-07-06T13:07:42;10.50;;;7.80;;
53881;SDS011;39794;55.782;37.452;2022-07-06T13:10:12;8.32;;;7.43;;
53881;SDS011;39794;55.782;37.452;2022-07-06T13:12:42;10.88;;;7.65;;
53881;SDS011;39794;55.782;37.452;2022-07-06T13:15:12;7.70;;;7.00;;
53881;SDS011;39794;55.782;37.452;2022-07-06T13:17:42;8.38;;;6.25;;
53881;SDS011;39794;55.782;37.452;2022-07-06T13:20:11;6.97;;;6.28;;
53881;SDS011;39794;55.782;37.452;2022-07-06T13:22:43;10.50;;;7.18;;
53881;SDS011;39794;55.782;37.452;2022-07-06T13:25:12;8.23;;;7.03;;
53881;SDS011;39794;55.782;37.452;2022-07-06T13:27:41;9.27;;;6.95;;
53881;SDS011;39794;55.782;37.452;2022-07-06T13:30:11;8.13;;;6.55;;
53881;SDS011;39794;55.782;37.452;2022-07-06T13:32:41;7.10;;;6.30;;
53881;SDS011;39794;55.782;37.452;2022-07-06T13:35:10;9.05;;;7.82;;
53881;SDS011;39794;55.782;37.452;2022-07-06T13:37:39;7.85;;;7.07;;
53881;SDS011;39794;55.782;37.452;2022-07-06T13:40:08;7.93;;;7.13;;
53881;SDS011;39794;55.782;37.452;2022-07-06T13:42:37;10.70;;;7.90;;
53881;SDS011;39794;55.782;37.452;2022-07-06T13:45:06;7.63;;;6.88;;
53881;SDS011;39794;55.782;37.452;2022-07-06T13:47:37;9.82;;;6.68;;
53881;SDS011;39794;55.782;37.452;2022-07-06T13:50:06;7.35;;;6.32;;
53881;SDS011;39794;55.782;37.452;2022-07-06T13:52:35;7.10;;;6.43;;
53881;SDS011;39794;55.782;37.452;2022-07-06T13:55:04;7.18;;;6.47;;
53881;SDS011;39794;55.782;37.452;2022-07-06T13:57:34;8.02;;;7.13;;
53881;SDS011;39794;55.782;37.452;2022-07-06T14:00:05;9.18;;;7.75;;
53881;SDS011;39794;55.782;37.452;2022-07-06T14:02:35;9.15;;;7.15;;
53881;SDS011;39794;55.782;37.452;2022-07-06T14:05:06;15.52;;;8.43;;
53881;SDS011;39794;55.782;37.452;2022-07-06T14:07:35;13.65;;;9.50;;
53881;SDS011;39794;55.782;37.452;2022-07-06T14:10:04;17.20;;;10.68;;
53881;SDS011;39794;55.782;37.452;2022-07-06T14:12:33;17.58;;;10.95;;
53881;SDS011;39794;55.782;37.452;2022-07-06T14:15:02;13.45;;;9.63;;
53881;SDS011;39794;55.782;37.452;2022-07-06T14:17:31;14.18;;;10.23;;
53881;SDS011;39794;55.782;37.452;2022-07-06T14:20:01;12.18;;;9.60;;
53881;SDS011;39794;55.782;37.452;2022-07-06T14:22:30;13.40;;;10.25;;
53881;SDS011;39794;55.782;37.452;2022-07-06T14:24:59;22.85;;;11.38;;
53881;SDS011;39794;55.782;37.452;2022-07-06T14:27:28;15.82;;;10.57;;
53881;SDS011;39794;55.782;37.452;2022-07-06T14:29:57;11.55;;;10.35;;
53881;SDS011;39794;55.782;37.452;2022-07-06T14:32:26;14.50;;;10.32;;
53881;SDS011;39794;55.782;37.452;2022-07-06T14:34:55;11.48;;;10.38;;